METAR Data
IDs: Format: Raw Decoded Include TAF

Data at: 0514 UTC 24 Sep 2018

KMMK 240453Z AUTO 00000KT 10SM CLR 10/09 A3033 RMK AO2 SLP272 T01000094 401830094
KMMK 240353Z AUTO 00000KT 8SM CLR 11/09 A3033 RMK AO2 SLP270 T01060094
KMMK 240253Z AUTO 00000KT 10SM CLR 11/10 A3031 RMK AO2 SLP265 T01110100 51015
KMMK 240153Z AUTO 00000KT 10SM CLR 12/11 A3030 RMK AO2 SLP260 T01170106
KMMK 240053Z AUTO 00000KT 10SM CLR 13/12 A3029 RMK AO2 SLP256 T01280117
KMMK 232353Z AUTO 00000KT 10SM CLR 13/12 A3027 RMK AO2 SLP250 T01280117 10183 20128 53011
KMMK 232253Z AUTO 00000KT 10SM CLR 14/12 A3025 RMK AO2 SLP244 T01440122
KMMK 232153Z AUTO 00000KT 10SM CLR 17/12 A3025 RMK AO2 SLP241 T01670117
KMMK 232053Z AUTO 00000KT 10SM FEW027 17/12 A3024 RMK AO2 SLP239 T01670117 55003
KMMK 231953Z AUTO 00000KT 10SM OVC030 17/09 A3023 RMK AO2 SLP238 T01720089
KMMK 231943Z AUTO 00000KT 10SM OVC030 18/08 A3023 RMK AO2 T01780083
KMMK 231912Z AUTO 29004KT 10SM BKN029 18/09 A3024 RMK AO2 T01780094
KMMK 231853Z AUTO 00000KT 10SM CLR 18/09 A3024 RMK AO2 SLP238 T01780094
KMMK 231753Z AUTO 00000KT 10SM BKN032 18/08 A3025 RMK AO2 SLP242 T01780083 10178 20122 58013
KMMK 231653Z AUTO 31003KT 10SM CLR 17/08 A3027 RMK AO2 SLP248 T01670083
KMMK 231553Z AUTO 01003KT 10SM CLR 16/09 A3028 RMK AO2 SLP252 T01560089
KMMK 231453Z AUTO 04004KT 10SM OVC036 15/09 A3029 RMK AO2 SLP255 T01500094 51012
KMMK 231353Z AUTO 02003KT 10SM OVC033 14/09 A3028 RMK AO2 SLP252 T01390094
KMMK 231253Z AUTO 01005KT 10SM OVC035 13/09 A3027 RMK AO2 SLP250 T01280089
KMMK 231153Z AUTO 01005KT 10SM OVC032 12/09 A3025 RMK AO2 SLP243 T01220094 10133 20122 51004
KMMK 231053Z AUTO 36004KT 10SM OVC034 12/09 A3025 RMK AO2 SLP243 T01220089
KMMK 230953Z AUTO 03004KT 10SM FEW034 BKN047 12/09 A3025 RMK AO2 SLP243 T01220089
KMMK 230853Z AUTO 00000KT 10SM CLR 12/09 A3024 RMK AO2 SLP239 T01220089 53002
KMMK 230753Z AUTO 33004KT 10SM BKN047 12/10 A3023 RMK AO2 SLP238 T01220100
KMMK 230653Z AUTO 00000KT 10SM SCT047 13/10 A3022 RMK AO2 SLP233 T01280100
KMMK 230553Z AUTO 33004KT 10SM CLR 13/10 A3023 RMK AO2 SLP236 T01280100 10172 20122 53004
KMMK 230453Z AUTO 00000KT 10SM CLR 13/11 A3022 RMK AO2 SLP232 T01280106 402220128
KMMK 230353Z AUTO 34003KT 10SM CLR 14/09 A3022 RMK AO2 SLP233 T01440094
KMMK 230253Z AUTO 03004KT 10SM CLR 15/09 A3022 RMK AO2 SLP232 T01500094 51008
KMMK 230153Z AUTO 00000KT 10SM CLR 16/10 A3022 RMK AO2 SLP232 T01610100
KMMK 230053Z AUTO 34005KT 10SM CLR 17/10 A3020 RMK AO2 SLP226 T01670100
KMMK 222353Z AUTO 34003KT 10SM CLR 17/11 A3020 RMK AO2 SLP224 T01720106 10217 20167 53019
KMMK 222253Z AUTO 00000KT 10SM CLR 18/12 A3018 RMK AO2 SLP217 T01780117
KMMK 222153Z AUTO 36005KT 10SM CLR 19/11 A3016 RMK AO2 SLP210 T01940106
KMMK 222053Z AUTO 01003KT 10SM CLR 20/11 A3014 RMK AO2 SLP205 T02000111 51003
KMMK 221953Z AUTO VRB05KT 10SM CLR 21/11 A3014 RMK AO2 SLP204 T02060106
KMMK 221853Z AUTO 36006KT 10SM CLR 21/11 A3013 RMK AO2 SLP203 T02060106
KMMK 221753Z AUTO 35010KT 10SM FEW041 21/10 A3013 RMK AO2 SLP202 T02110100 10222 20189 53006